createdAt,value
2018-09-29T00:04:01.116Z,13.8
2018-09-29T00:08:57.317Z,13.8
2018-09-29T00:13:53.516Z,13.8
2018-09-29T00:18:49.645Z,13.7
2018-09-29T00:23:46.365Z,13.7
2018-09-29T00:28:42.793Z,13.7
2018-09-29T00:33:38.592Z,13.6
2018-09-29T00:38:34.422Z,13.6
2018-09-29T00:43:30.615Z,12.4
2018-09-29T00:48:26.755Z,13.4
2018-09-29T00:53:22.781Z,13.4
2018-09-29T00:58:19.137Z,13.4
2018-09-29T01:03:15.530Z,13.3
2018-09-29T01:08:12.428Z,12.5
2018-09-29T01:13:08.589Z,13.3
2018-09-29T01:18:04.731Z,13.3
2018-09-29T01:23:00.897Z,13.3
2018-09-29T01:27:57.266Z,13.2
2018-09-29T01:32:52.817Z,13.2
2018-09-29T01:37:48.897Z,13.1
2018-09-29T01:42:45.082Z,13.1
2018-09-29T01:47:40.951Z,13.1
2018-09-29T01:52:37.475Z,13.1
2018-09-29T01:57:33.527Z,13.1
2018-09-29T02:02:29.498Z,13
2018-09-29T02:07:25.676Z,13.1
2018-09-29T02:12:22.063Z,13.1
2018-09-29T02:17:17.965Z,13.1
2018-09-29T02:22:14.162Z,12.4
2018-09-29T02:27:10.168Z,13.1
2018-09-29T02:32:06.604Z,13.1
2018-09-29T02:37:02.882Z,13.1
2018-09-29T02:41:59.021Z,13.1
2018-09-29T02:46:55.023Z,13
2018-09-29T02:51:51.130Z,12.7
2018-09-29T02:56:47.607Z,12.1
2018-09-29T03:01:43.928Z,12.4
2018-09-29T03:06:40.216Z,11.8
2018-09-29T03:11:36.464Z,12.9
2018-09-29T03:16:32.244Z,12.9
2018-09-29T03:21:28.336Z,12.9
2018-09-29T03:26:23.765Z,12.8
2018-09-29T03:31:20.112Z,12.7
2018-09-29T03:36:16.071Z,12.7
2018-09-29T03:41:12.263Z,12.7
2018-09-29T03:46:08.198Z,12.7
2018-09-29T03:51:04.336Z,12.7
2018-09-29T03:56:00.706Z,12.7
2018-09-29T04:00:58.828Z,12.6
2018-09-29T04:05:55.390Z,12.5
2018-09-29T04:10:51.455Z,12
2018-09-29T04:15:47.250Z,12.6
2018-09-29T04:20:43.526Z,12.7
2018-09-29T04:25:39.829Z,12.7
2018-09-29T04:30:35.817Z,12.7
2018-09-29T04:35:31.932Z,12.5
2018-09-29T04:40:28.164Z,12.8
2018-09-29T04:45:24.460Z,12.5
2018-09-29T04:50:21.145Z,12.8
2018-09-29T04:55:17.436Z,12
2018-09-29T05:00:13.558Z,12.8
2018-09-29T05:05:09.639Z,12.1
2018-09-29T05:10:06.552Z,12.8
2018-09-29T05:15:03.452Z,12
2018-09-29T05:19:59.965Z,12.9
2018-09-29T05:24:56.272Z,12
2018-09-29T05:29:52.801Z,12.1
2018-09-29T05:34:49.041Z,12.9
2018-09-29T05:39:45.420Z,12.2
2018-09-29T05:44:41.752Z,12.2
2018-09-29T05:49:38.259Z,13
2018-09-29T05:54:34.809Z,12.3
2018-09-29T05:59:31.452Z,13.1
2018-09-29T06:04:27.154Z,13.1
2018-09-29T06:09:23.380Z,13.2
2018-09-29T06:14:20.556Z,13.2
2018-09-29T06:19:16.680Z,13.3
2018-09-29T06:24:12.860Z,13.4
2018-09-29T06:29:08.625Z,12.1
2018-09-29T06:34:04.911Z,13.5
2018-09-29T06:39:00.592Z,13.6
2018-09-29T06:43:56.752Z,13.7
2018-09-29T06:48:53.173Z,13.7
2018-09-29T06:53:49.131Z,11.9
2018-09-29T06:58:45.810Z,13.9
2018-09-29T07:03:42.248Z,14
2018-09-29T07:08:38.537Z,13.8
2018-09-29T07:13:34.620Z,13.4
2018-09-29T07:18:30.850Z,13.4
2018-09-29T07:23:27.031Z,14.3
2018-09-29T07:28:23.006Z,13.6
2018-09-29T07:33:19.600Z,13.7
2018-09-29T07:38:15.723Z,14.4
2018-09-29T07:43:11.838Z,14.3
2018-09-29T07:48:07.871Z,14.3
2018-09-29T07:53:04.975Z,13.5
2018-09-29T07:58:01.636Z,13.5
2018-09-29T08:02:57.508Z,13.6
2018-09-29T08:07:53.417Z,14.3
2018-09-29T08:12:49.593Z,14.4
2018-09-29T08:17:45.840Z,14.1
2018-09-29T08:22:42.187Z,14.5
2018-09-29T08:27:38.714Z,14.5
2018-09-29T08:32:35.008Z,14.6
2018-09-29T08:37:31.710Z,14.6
2018-09-29T08:42:27.873Z,14.7
2018-09-29T08:47:24.105Z,14
2018-09-29T08:52:20.091Z,14.9
2018-09-29T08:57:16.659Z,14.2
2018-09-29T09:02:12.639Z,14.3
2018-09-29T09:07:09.154Z,15.1
2018-09-29T09:12:05.424Z,15.2
2018-09-29T09:17:01.965Z,15.3
2018-09-29T09:21:58.166Z,15.5
2018-09-29T09:26:54.812Z,14.6
2018-09-29T09:31:51.149Z,15.8
2018-09-29T09:36:47.697Z,15.9
2018-09-29T09:41:44.201Z,16
2018-09-29T09:46:40.472Z,16.1
2018-09-29T09:51:36.930Z,16.3
2018-09-29T09:56:33.318Z,16.5
2018-09-29T10:01:29.593Z,15.9
2018-09-29T10:06:26.237Z,17
2018-09-29T10:11:22.616Z,17.2
2018-09-29T10:16:19.494Z,17.5
2018-09-29T10:21:15.751Z,17.7
2018-09-29T10:26:12.432Z,17.9
2018-09-29T10:31:09.094Z,18
2018-09-29T10:36:05.654Z,17.4
2018-09-29T10:41:01.967Z,18.2
2018-09-29T10:45:58.397Z,18.3
2018-09-29T10:50:55.102Z,18.4
2018-09-29T10:55:51.672Z,18.5
2018-09-29T11:00:48.369Z,18.7
2018-09-29T11:05:45.011Z,18.8
2018-09-29T11:10:40.963Z,18.2
2018-09-29T11:15:37.157Z,18.9
2018-09-29T11:20:32.899Z,18.3
2018-09-29T11:25:29.473Z,19.1
2018-09-29T11:30:25.917Z,19
2018-09-29T11:35:22.262Z,17.7
2018-09-29T11:40:19.156Z,19.6
2018-09-29T11:45:15.611Z,19
2018-09-29T11:50:12.268Z,19.2
2018-09-29T11:55:08.902Z,19.3
2018-09-29T12:00:05.396Z,20.1
2018-09-29T12:05:01.711Z,19.5
2018-09-29T12:09:58.316Z,20.3
2018-09-29T12:14:55.347Z,19.7
2018-09-29T12:19:51.735Z,19.8
2018-09-29T12:24:47.810Z,19.8
2018-09-29T12:29:44.295Z,19.9
2018-09-29T12:34:40.576Z,19.9
2018-09-29T12:39:36.821Z,19.8
2018-09-29T12:44:32.986Z,19.7
2018-09-29T12:49:29.416Z,19.8
2018-09-29T12:54:25.629Z,19.9
2018-09-29T12:59:22.681Z,20.1
2018-09-29T13:04:18.926Z,20.2
2018-09-29T13:09:15.225Z,20.2
2018-09-29T13:14:11.587Z,20.2
2018-09-29T13:19:08.072Z,20.3
2018-09-29T13:24:04.269Z,20.2
2018-09-29T13:29:00.490Z,20.1
2018-09-29T13:33:56.736Z,20
2018-09-29T13:38:53.122Z,20
2018-09-29T13:43:49.514Z,19.9
2018-09-29T13:48:45.836Z,19.9
2018-09-29T13:53:42.468Z,19.9
2018-09-29T13:58:39.351Z,20
2018-09-29T14:03:36.105Z,20.7
2018-09-29T14:08:32.345Z,19.5
2018-09-29T14:13:28.436Z,20
2018-09-29T14:18:24.535Z,19.9
2018-09-29T14:23:21.922Z,20.6
2018-09-29T14:28:17.903Z,19.9
2018-09-29T14:33:14.179Z,19.9
2018-09-29T14:38:10.478Z,19.9
2018-09-29T14:43:06.808Z,19.9
2018-09-29T14:48:03.110Z,19.9
2018-09-29T14:52:59.541Z,19.9
2018-09-29T14:57:56.046Z,19.8
2018-09-29T15:02:52.299Z,18.6
2018-09-29T15:07:48.136Z,20.4
2018-09-29T15:12:44.425Z,19.6
2018-09-29T15:17:40.627Z,19.5
2018-09-29T15:22:36.982Z,19.5
2018-09-29T15:27:33.202Z,19.5
2018-09-29T15:32:29.435Z,20
2018-09-29T15:37:25.711Z,19.3
2018-09-29T15:42:22.548Z,19.9
2018-09-29T15:47:18.763Z,19.2
2018-09-29T15:52:15.381Z,18.7
2018-09-29T15:57:11.375Z,19
2018-09-29T16:02:07.510Z,19.6
2018-09-29T16:07:03.710Z,19.5
2018-09-29T16:12:00.396Z,19.5
2018-09-29T16:16:56.549Z,18.7
2018-09-29T16:21:52.882Z,19.4
2018-09-29T16:26:48.846Z,18.6
2018-09-29T16:31:45.560Z,19.2
2018-09-29T16:36:41.697Z,19.2
2018-09-29T16:41:37.835Z,19.1
2018-09-29T16:46:34.296Z,19
2018-09-29T16:51:30.725Z,18.9
2018-09-29T16:56:26.774Z,18.8
2018-09-29T17:01:23.112Z,18.8
2018-09-29T17:06:19.447Z,18.7
2018-09-29T17:11:15.521Z,18.6
2018-09-29T17:16:11.761Z,18.5
2018-09-29T17:21:08.054Z,18.5
2018-09-29T17:26:04.326Z,18.4
2018-09-29T17:31:00.475Z,18.3
2018-09-29T17:35:56.660Z,18.3
2018-09-29T17:40:52.634Z,18.2
2018-09-29T17:45:48.807Z,17.9
2018-09-29T17:50:44.848Z,17.3
2018-09-29T17:55:41.666Z,16.9
2018-09-29T18:00:38.371Z,17.8
2018-09-29T18:05:34.591Z,17.8
2018-09-29T18:10:30.648Z,17.7
2018-09-29T18:15:26.676Z,17.4
2018-09-29T18:20:23.017Z,17.6
2018-09-29T18:25:19.214Z,16.9
2018-09-29T18:30:15.546Z,17.5
2018-09-29T18:35:11.676Z,17.2
2018-09-29T18:40:07.882Z,17.4
2018-09-29T18:45:04.008Z,17.3
2018-09-29T18:50:00.460Z,17.2
2018-09-29T18:54:56.464Z,17.1
2018-09-29T18:59:52.253Z,17.1
2018-09-29T19:04:48.543Z,17
2018-09-29T19:09:44.159Z,17
2018-09-29T19:14:40.870Z,16.2
2018-09-29T19:19:37.136Z,16.9
2018-09-29T19:24:33.056Z,16.8
2018-09-29T19:29:29.158Z,16.8
2018-09-29T19:34:25.507Z,16.8
2018-09-29T19:39:21.864Z,16.7
2018-09-29T19:44:18.725Z,16
2018-09-29T19:49:15.200Z,16
2018-09-29T19:54:11.499Z,16.7
2018-09-29T19:59:08.447Z,16.7
2018-09-29T20:04:04.943Z,16.6
2018-09-29T20:09:01.212Z,16.6
2018-09-29T20:13:57.301Z,16.5
2018-09-29T20:18:53.631Z,11.4
2018-09-29T20:23:49.712Z,16.4
2018-09-29T20:28:46.247Z,16.4
2018-09-29T20:33:42.250Z,8.8
2018-09-29T20:38:38.258Z,16.3
2018-09-29T20:43:34.575Z,16.3
2018-09-29T20:48:30.976Z,16.3
2018-09-29T20:53:27.304Z,16.2
2018-09-29T20:58:23.929Z,16.1
2018-09-29T21:03:20.020Z,16.1
2018-09-29T21:08:16.422Z,16.1
2018-09-29T21:13:12.195Z,16.1
2018-09-29T21:18:08.391Z,16
2018-09-29T21:23:05.059Z,16
2018-09-29T21:28:00.889Z,15.9
2018-09-29T21:32:57.239Z,15.9
2018-09-29T21:37:53.715Z,15.9
2018-09-29T21:42:49.873Z,15.9
2018-09-29T21:47:46.408Z,15.2
2018-09-29T21:52:42.459Z,15.9
2018-09-29T21:57:38.824Z,15.8
2018-09-29T22:02:35.209Z,15.8
2018-09-29T22:07:31.388Z,15.8
2018-09-29T22:12:27.551Z,15.8
2018-09-29T22:17:24.548Z,15.7
2018-09-29T22:22:20.647Z,15.7
2018-09-29T22:27:16.523Z,15.7
2018-09-29T22:32:12.524Z,15.7
2018-09-29T22:37:08.722Z,15.6
2018-09-29T22:42:04.868Z,15.6
2018-09-29T22:47:01.094Z,15.6
2018-09-29T22:51:57.453Z,15.6
2018-09-29T22:56:53.921Z,14.9
2018-09-29T23:01:50.115Z,15.6
2018-09-29T23:06:46.734Z,15.6
2018-09-29T23:11:42.750Z,15.6
2018-09-29T23:16:39.060Z,15.7
2018-09-29T23:21:35.375Z,15.7
2018-09-29T23:26:31.943Z,15.7
2018-09-29T23:31:28.129Z,15.7
2018-09-29T23:36:24.404Z,15.7
2018-09-29T23:41:19.979Z,15.6
2018-09-29T23:46:16.175Z,15.6
2018-09-29T23:51:12.348Z,15.6
2018-09-29T23:56:08.821Z,15.6
